createdAt,value
2022-12-16T00:02:22.353Z,85.95
2022-12-16T00:04:50.168Z,85.86
2022-12-16T00:07:18.292Z,86.20
2022-12-16T00:09:46.027Z,86.37
2022-12-16T00:12:13.623Z,86.29
2022-12-16T00:14:41.275Z,86.44
2022-12-16T00:17:08.952Z,87.02
2022-12-16T00:19:36.842Z,87.40
2022-12-16T00:22:04.518Z,87.46
2022-12-16T00:24:32.182Z,87.53
2022-12-16T00:26:59.891Z,87.64
2022-12-16T00:29:27.496Z,87.59
2022-12-16T00:31:55.238Z,87.61
2022-12-16T00:34:23.238Z,87.67
2022-12-16T00:36:50.827Z,87.80
2022-12-16T00:39:18.440Z,87.86
2022-12-16T00:41:47.621Z,87.37
2022-12-16T00:44:15.260Z,86.65
2022-12-16T00:46:43.355Z,86.46
2022-12-16T00:49:10.938Z,86.11
2022-12-16T00:51:38.545Z,85.80
2022-12-16T00:54:06.326Z,85.45
2022-12-16T00:56:34.035Z,85.47
2022-12-16T00:59:02.089Z,86.06
2022-12-16T01:01:29.874Z,85.85
2022-12-16T01:03:58.089Z,86.13
2022-12-16T01:06:25.863Z,86.74
2022-12-16T01:08:53.574Z,86.72
2022-12-16T01:11:22.692Z,86.98
2022-12-16T01:13:52.107Z,87.34
2022-12-16T01:16:19.982Z,87.53
2022-12-16T01:18:47.705Z,87.72
2022-12-16T01:21:15.864Z,87.92
2022-12-16T01:23:43.555Z,87.98
2022-12-16T01:26:16.745Z,87.61
2022-12-16T01:28:45.388Z,87.54
2022-12-16T01:31:15.982Z,86.79
2022-12-16T01:33:44.414Z,86.74
2022-12-16T01:36:12.058Z,86.47
2022-12-16T01:38:42.470Z,85.84
2022-12-16T01:41:11.905Z,85.68
2022-12-16T01:43:41.507Z,85.57
2022-12-16T01:46:12.297Z,85.62
2022-12-16T01:48:45.920Z,85.68
2022-12-16T01:51:35.890Z,86.43
2022-12-16T01:54:08.907Z,86.81
2022-12-16T01:56:41.020Z,86.91
2022-12-16T01:59:11.481Z,86.74
2022-12-16T02:01:39.288Z,86.98
2022-12-16T02:04:07.160Z,87.36
2022-12-16T02:06:34.909Z,87.49
2022-12-16T02:09:06.824Z,87.61
2022-12-16T02:12:16.228Z,88.13
2022-12-16T02:14:55.733Z,88.34
2022-12-16T02:17:41.107Z,88.29
2022-12-16T02:20:39.570Z,88.05
2022-12-16T02:23:34.667Z,87.69
2022-12-16T02:38:39.819Z,87.02
2022-12-16T02:41:17.721Z,87.12
2022-12-16T02:43:51.524Z,87.18
2022-12-16T02:46:24.202Z,86.95
2022-12-16T02:48:51.935Z,86.76
2022-12-16T02:51:21.456Z,86.56
2022-12-16T02:53:51.223Z,86.65
2022-12-16T02:56:54.541Z,86.69
2022-12-16T02:59:41.955Z,87.09
2022-12-16T03:02:30.856Z,87.11
2022-12-16T03:05:06.871Z,87.06
2022-12-16T03:07:36.673Z,87.51
2022-12-16T03:10:08.720Z,87.61
2022-12-16T03:12:40.443Z,87.88
2022-12-16T03:15:09.101Z,88.38
2022-12-16T03:17:38.198Z,88.54
2022-12-16T03:20:15.692Z,88.55
2022-12-16T03:22:46.791Z,88.71
2022-12-16T03:25:15.310Z,88.33
2022-12-16T03:28:14.446Z,87.97
2022-12-16T03:30:47.606Z,87.83
2022-12-16T03:33:23.052Z,87.57
2022-12-16T03:35:59.943Z,87.34
2022-12-16T03:38:28.594Z,87.27
2022-12-16T03:40:58.222Z,87.09
2022-12-16T03:43:25.940Z,87.13
2022-12-16T03:45:56.770Z,86.84
2022-12-16T03:48:26.247Z,86.64
2022-12-16T03:50:53.880Z,86.91
2022-12-16T03:53:26.438Z,87.03
2022-12-16T03:55:55.026Z,87.21
2022-12-16T03:58:22.663Z,87.38
2022-12-16T04:00:50.644Z,87.38
2022-12-16T04:03:18.388Z,87.54
2022-12-16T04:05:46.574Z,87.59
2022-12-16T04:08:14.217Z,87.70
2022-12-16T04:11:00.534Z,87.62
2022-12-16T04:13:46.795Z,88.05
2022-12-16T04:16:35.940Z,88.31
2022-12-16T04:19:22.471Z,88.31
2022-12-16T04:22:09.550Z,88.41
2022-12-16T04:24:37.175Z,87.64
2022-12-16T04:27:23.226Z,87.87
2022-12-16T04:30:09.302Z,87.34
2022-12-16T04:32:55.989Z,87.38
2022-12-16T04:35:41.939Z,86.96
2022-12-16T04:38:28.576Z,87.18
2022-12-16T04:41:14.536Z,87.17
2022-12-16T04:44:00.846Z,87.09
2022-12-16T04:46:47.598Z,87.12
2022-12-16T04:49:34.489Z,87.65
2022-12-16T04:52:21.195Z,87.38
2022-12-16T04:55:07.494Z,87.49
2022-12-16T04:57:53.678Z,87.63
2022-12-16T05:00:40.375Z,87.70
2022-12-16T05:03:27.280Z,87.89
2022-12-16T05:06:13.636Z,88.15
2022-12-16T05:09:00.036Z,88.18
2022-12-16T05:11:46.483Z,87.99
2022-12-16T05:14:32.721Z,87.28
2022-12-16T05:17:19.026Z,87.28
2022-12-16T05:20:05.537Z,87.29
2022-12-16T05:22:52.318Z,87.22
2022-12-16T05:25:38.354Z,87.13
2022-12-16T05:28:24.384Z,87.18
2022-12-16T05:31:10.660Z,87.74
2022-12-16T05:33:56.683Z,87.77
2022-12-16T05:36:43.122Z,88.23
2022-12-16T05:39:29.211Z,87.97
2022-12-16T05:42:15.563Z,88.58
2022-12-16T05:45:01.740Z,88.00
2022-12-16T05:47:47.990Z,87.80
2022-12-16T05:50:34.584Z,87.77
2022-12-16T05:53:27.762Z,87.53
2022-12-16T05:56:15.629Z,87.54
2022-12-16T05:59:01.792Z,87.29
2022-12-16T06:01:48.310Z,87.52
2022-12-16T06:04:34.731Z,87.20
2022-12-16T06:07:21.027Z,87.20
2022-12-16T06:10:07.120Z,87.53
2022-12-16T06:12:53.381Z,87.70
2022-12-16T06:15:39.420Z,87.78
2022-12-16T06:18:25.620Z,87.79
2022-12-16T06:21:11.745Z,88.11
2022-12-16T06:23:58.178Z,88.42
2022-12-16T06:26:44.796Z,88.24
2022-12-16T06:29:31.128Z,88.02
2022-12-16T06:32:17.306Z,87.66
2022-12-16T06:35:03.547Z,87.62
2022-12-16T06:37:49.586Z,87.33
2022-12-16T06:40:35.845Z,87.41
2022-12-16T06:43:22.324Z,87.75
2022-12-16T06:46:08.662Z,87.55
2022-12-16T06:48:55.085Z,87.54
2022-12-16T06:51:41.354Z,87.93
2022-12-16T06:54:27.349Z,87.96
2022-12-16T06:57:13.528Z,88.39
2022-12-16T06:59:59.641Z,88.40
2022-12-16T07:02:45.758Z,87.96
2022-12-16T07:05:32.396Z,88.29
2022-12-16T07:08:18.765Z,87.63
2022-12-16T07:11:16.223Z,87.52
2022-12-16T07:14:04.000Z,87.36
2022-12-16T07:16:50.159Z,87.18
2022-12-16T07:19:36.517Z,87.51
2022-12-16T07:22:22.655Z,87.11
2022-12-16T07:25:08.706Z,87.58
2022-12-16T07:27:54.630Z,87.92
2022-12-16T07:30:40.875Z,87.65
2022-12-16T07:33:26.844Z,88.04
2022-12-16T07:36:13.375Z,88.20
2022-12-16T07:38:59.479Z,88.30
2022-12-16T07:41:45.674Z,87.89
2022-12-16T07:44:32.416Z,87.75
2022-12-16T07:47:18.420Z,88.00
2022-12-16T07:50:04.997Z,87.82
2022-12-16T07:52:51.335Z,87.66
2022-12-16T07:55:37.584Z,87.67
2022-12-16T07:58:23.999Z,87.94
2022-12-16T08:01:10.615Z,87.59
2022-12-16T08:03:57.042Z,87.77
2022-12-16T08:06:43.561Z,87.56
2022-12-16T08:09:29.508Z,87.75
2022-12-16T08:12:15.891Z,88.23
2022-12-16T08:15:02.287Z,87.73
2022-12-16T08:17:48.774Z,88.02
2022-12-16T08:20:35.231Z,88.18
2022-12-16T08:23:21.634Z,88.20
2022-12-16T08:26:07.938Z,88.27
2022-12-16T08:28:54.799Z,88.08
2022-12-16T08:31:41.345Z,88.04
2022-12-16T08:34:27.643Z,87.80
2022-12-16T08:37:18.391Z,88.19
2022-12-16T08:40:33.678Z,87.81
2022-12-16T08:43:12.738Z,88.13
2022-12-16T08:46:00.645Z,88.45
2022-12-16T08:48:47.017Z,88.88
2022-12-16T08:51:33.343Z,88.55
2022-12-16T08:54:19.874Z,88.55
2022-12-16T08:57:06.250Z,88.42
2022-12-16T08:59:52.698Z,88.41
2022-12-16T09:02:39.639Z,87.90
2022-12-16T09:05:26.102Z,88.00
2022-12-16T09:08:17.910Z,87.89
2022-12-16T09:11:04.264Z,87.82
2022-12-16T09:13:51.010Z,88.15
2022-12-16T09:16:37.780Z,88.35
2022-12-16T09:19:24.011Z,88.54
2022-12-16T09:22:10.138Z,88.40
2022-12-16T09:24:56.549Z,88.32
2022-12-16T09:27:44.459Z,88.35
2022-12-16T09:30:31.155Z,88.10
2022-12-16T09:33:17.217Z,87.99
2022-12-16T09:36:03.728Z,87.97
2022-12-16T09:38:50.221Z,87.73
2022-12-16T09:41:46.251Z,87.59
2022-12-16T09:44:52.078Z,87.84
2022-12-16T09:47:41.438Z,88.29
2022-12-16T09:50:41.553Z,88.25
2022-12-16T09:53:40.662Z,88.47
2022-12-16T09:56:53.885Z,88.32
2022-12-16T10:00:00.459Z,88.13
2022-12-16T10:02:46.843Z,88.07
2022-12-16T10:05:38.967Z,87.80
2022-12-16T10:08:36.142Z,87.80
2022-12-16T10:11:30.297Z,87.79
2022-12-16T10:14:23.407Z,87.83
2022-12-16T10:17:21.294Z,88.17
2022-12-16T10:20:22.515Z,88.08
2022-12-16T10:23:22.062Z,88.22
2022-12-16T10:26:33.453Z,88.32
2022-12-16T10:29:36.829Z,88.26
2022-12-16T10:32:46.513Z,88.26
2022-12-16T10:35:40.738Z,88.18
2022-12-16T10:38:38.458Z,87.95
2022-12-16T10:41:26.892Z,88.14
2022-12-16T10:44:16.064Z,88.27
2022-12-16T10:47:02.765Z,88.15
2022-12-16T10:49:53.800Z,88.26
2022-12-16T10:52:41.228Z,88.27
2022-12-16T10:55:49.496Z,87.82
2022-12-16T10:58:48.345Z,88.07
2022-12-16T11:01:45.954Z,87.80
2022-12-16T11:04:50.090Z,87.82
2022-12-16T11:07:57.287Z,87.63
2022-12-16T11:10:56.048Z,88.25
2022-12-16T11:13:43.950Z,88.03
2022-12-16T11:16:42.827Z,88.13
2022-12-16T11:19:47.564Z,87.90
2022-12-16T11:22:33.663Z,87.75
2022-12-16T11:25:38.189Z,87.58
2022-12-16T11:28:35.493Z,87.51
2022-12-16T11:31:26.731Z,87.21
2022-12-16T11:34:14.344Z,87.59
2022-12-16T11:37:02.958Z,87.47
2022-12-16T11:39:53.309Z,87.35
2022-12-16T11:42:44.236Z,87.12
2022-12-16T11:45:37.617Z,87.37
2022-12-16T11:48:50.350Z,87.21
2022-12-16T11:51:39.356Z,87.42
2022-12-16T11:54:33.362Z,87.44
2022-12-16T11:57:23.537Z,87.70
2022-12-16T12:03:30.161Z,87.64
2022-12-16T12:06:31.210Z,87.79
2022-12-16T12:09:32.864Z,87.54
2022-12-16T12:12:22.216Z,87.58
2022-12-16T12:15:18.777Z,87.61
2022-12-16T12:18:14.365Z,87.55
2022-12-16T12:21:13.198Z,87.56
2022-12-16T12:24:20.342Z,87.47
2022-12-16T12:27:37.390Z,87.32
2022-12-16T12:30:30.193Z,87.09
2022-12-16T12:33:56.474Z,87.09
2022-12-16T12:37:07.092Z,86.87
2022-12-16T12:40:05.713Z,87.09
2022-12-16T12:43:09.412Z,86.84
2022-12-16T12:46:11.184Z,86.93
2022-12-16T12:49:08.633Z,87.06
2022-12-16T12:51:55.103Z,87.41
2022-12-16T12:55:06.168Z,87.53
2022-12-16T12:57:56.156Z,87.49
2022-12-16T13:00:45.702Z,87.56
2022-12-16T13:03:55.712Z,87.88
2022-12-16T13:06:42.955Z,87.97
2022-12-16T13:09:53.427Z,88.28
2022-12-16T13:12:42.341Z,88.14
2022-12-16T13:15:51.407Z,88.47
2022-12-16T13:18:52.166Z,88.33
2022-12-16T13:21:54.895Z,88.39
2022-12-16T13:25:00.132Z,88.46
2022-12-16T13:27:49.094Z,88.55
2022-12-16T13:30:35.660Z,88.29
2022-12-16T13:33:28.979Z,88.22
2022-12-16T13:36:17.676Z,88.33
2022-12-16T13:39:09.594Z,88.32
2022-12-16T13:41:56.093Z,88.44
2022-12-16T13:45:01.095Z,88.65
2022-12-16T13:47:59.734Z,88.74
2022-12-16T13:51:03.884Z,88.83
2022-12-16T13:54:19.280Z,89.10
2022-12-16T13:57:25.407Z,89.02
2022-12-16T14:00:12.959Z,89.05
2022-12-16T14:03:02.091Z,88.95
2022-12-16T14:05:55.970Z,88.94
2022-12-16T14:08:43.667Z,89.16
2022-12-16T14:12:09.758Z,89.14
2022-12-16T14:15:10.310Z,89.03
2022-12-16T14:18:07.127Z,89.09
2022-12-16T14:21:13.372Z,89.01
2022-12-16T14:24:14.293Z,89.09
2022-12-16T14:27:01.170Z,88.99
2022-12-16T14:29:50.101Z,89.23
2022-12-16T14:32:47.116Z,89.12
2022-12-16T14:35:33.499Z,89.05
2022-12-16T14:38:47.282Z,88.68
2022-12-16T14:41:37.861Z,88.88
2022-12-16T14:44:34.345Z,88.75
2022-12-16T14:47:21.208Z,88.77
2022-12-16T14:50:24.152Z,88.48
2022-12-16T14:53:31.985Z,88.99
2022-12-16T14:56:38.445Z,89.05
2022-12-16T14:59:35.885Z,88.94
2022-12-16T15:02:47.531Z,88.98
2022-12-16T15:05:38.984Z,88.99
2022-12-16T15:08:31.129Z,88.86
2022-12-16T15:11:19.755Z,89.00
2022-12-16T15:14:13.212Z,88.83
2022-12-16T15:17:02.799Z,89.09
2022-12-16T15:20:01.587Z,88.86
2022-12-16T15:22:50.364Z,88.97
2022-12-16T15:25:44.552Z,88.77
2022-12-16T15:28:58.302Z,88.93
2022-12-16T15:31:49.801Z,88.88
2022-12-16T15:34:42.323Z,88.90
2022-12-16T15:37:37.804Z,88.70
2022-12-16T15:40:41.241Z,88.65
2022-12-16T15:43:46.640Z,89.27
2022-12-16T15:46:45.612Z,89.18
2022-12-16T15:49:47.352Z,89.22
2022-12-16T15:52:48.891Z,88.91
2022-12-16T15:55:53.510Z,89.43
2022-12-16T15:58:53.084Z,88.97
2022-12-16T16:01:45.166Z,89.17
2022-12-16T16:04:46.301Z,89.12
2022-12-16T16:07:42.464Z,88.94
2022-12-16T16:10:38.536Z,89.16
2022-12-16T16:13:25.062Z,89.14
2022-12-16T16:16:12.354Z,89.26
2022-12-16T16:19:01.378Z,89.26
2022-12-16T16:21:48.269Z,89.17
2022-12-16T16:24:34.656Z,89.08
2022-12-16T16:27:24.950Z,89.29
2022-12-16T16:30:11.071Z,89.30
2022-12-16T16:32:57.180Z,89.49
2022-12-16T16:35:43.920Z,89.28
2022-12-16T16:38:31.159Z,88.93
2022-12-16T16:41:17.737Z,89.00
2022-12-16T16:44:04.165Z,88.78
2022-12-16T16:46:56.989Z,88.75
2022-12-16T16:49:54.944Z,89.12
2022-12-16T16:52:43.898Z,89.21
2022-12-16T16:55:39.509Z,89.01
2022-12-16T16:58:41.803Z,89.45
2022-12-16T17:01:32.895Z,89.30
2022-12-16T17:04:20.206Z,88.95
2022-12-16T17:07:06.966Z,88.91
2022-12-16T17:09:54.818Z,89.08
2022-12-16T17:12:48.725Z,89.17
2022-12-16T17:15:37.361Z,88.95
2022-12-16T17:18:24.548Z,89.00
2022-12-16T17:21:12.092Z,88.96
2022-12-16T17:23:58.283Z,88.91
2022-12-16T17:26:45.255Z,88.95
2022-12-16T17:29:42.784Z,88.90
2022-12-16T17:32:32.330Z,88.81
2022-12-16T17:35:18.558Z,89.10
2022-12-16T17:38:04.755Z,88.99
2022-12-16T17:40:50.946Z,88.96
2022-12-16T17:43:37.473Z,88.91
2022-12-16T17:46:26.411Z,88.82
2022-12-16T17:49:17.675Z,89.09
2022-12-16T17:52:03.965Z,89.05
2022-12-16T17:54:50.214Z,89.21
2022-12-16T17:57:36.941Z,89.07
2022-12-16T18:00:23.535Z,88.90
2022-12-16T18:03:10.203Z,89.17
2022-12-16T18:05:56.862Z,88.98
2022-12-16T18:08:43.803Z,88.57
2022-12-16T18:11:30.640Z,88.84
2022-12-16T18:14:19.224Z,89.05
2022-12-16T18:17:05.502Z,88.52
2022-12-16T18:19:51.867Z,88.48
2022-12-16T18:22:38.296Z,88.68
2022-12-16T18:25:24.752Z,88.77
2022-12-16T18:28:10.868Z,88.67
2022-12-16T18:30:57.438Z,88.62
2022-12-16T18:33:43.770Z,88.75
2022-12-16T18:36:29.816Z,88.50
2022-12-16T18:39:16.165Z,88.40
2022-12-16T18:42:03.758Z,88.53
2022-12-16T18:44:53.830Z,88.45
2022-12-16T18:47:43.713Z,88.28
2022-12-16T18:50:35.810Z,88.19
2022-12-16T18:53:24.325Z,88.43
2022-12-16T18:56:26.187Z,88.31
2022-12-16T18:59:13.067Z,88.27
2022-12-16T19:02:00.146Z,88.46
2022-12-16T19:04:46.763Z,88.62
2022-12-16T19:07:34.075Z,88.51
2022-12-16T19:10:20.771Z,88.84
2022-12-16T19:13:07.325Z,88.94
2022-12-16T19:15:53.688Z,88.72
2022-12-16T19:18:40.223Z,88.92
2022-12-16T19:21:28.725Z,88.45
2022-12-16T19:24:14.849Z,88.54
2022-12-16T19:27:01.423Z,88.64
2022-12-16T19:29:47.740Z,88.77
2022-12-16T19:32:33.850Z,88.60
2022-12-16T19:35:20.160Z,88.48
2022-12-16T19:38:06.612Z,88.81
2022-12-16T19:40:52.706Z,88.65
2022-12-16T19:43:40.304Z,88.64
2022-12-16T19:46:26.433Z,88.58
2022-12-16T19:49:12.783Z,88.41
2022-12-16T19:51:58.800Z,88.49
2022-12-16T19:54:45.193Z,88.59
2022-12-16T19:57:31.763Z,88.74
2022-12-16T20:00:17.923Z,88.77
2022-12-16T20:03:04.552Z,88.56
2022-12-16T20:05:51.106Z,88.43
2022-12-16T20:08:37.978Z,88.67
2022-12-16T20:11:26.704Z,88.80
2022-12-16T20:14:14.603Z,88.66
2022-12-16T20:17:00.993Z,88.61
2022-12-16T20:19:47.567Z,88.77
2022-12-16T20:22:33.559Z,88.71
2022-12-16T20:25:19.947Z,88.71
2022-12-16T20:28:06.008Z,88.79
2022-12-16T20:30:52.380Z,88.73
2022-12-16T20:33:40.218Z,88.94
2022-12-16T20:36:29.036Z,88.85
2022-12-16T20:39:15.074Z,88.93
2022-12-16T20:42:01.086Z,88.65
2022-12-16T20:44:47.592Z,88.67
2022-12-16T20:47:33.780Z,88.76
2022-12-16T20:50:20.148Z,89.06
2022-12-16T20:53:06.442Z,88.78
2022-12-16T20:55:52.755Z,88.82
2022-12-16T20:58:42.603Z,88.76
2022-12-16T21:01:29.007Z,88.84
2022-12-16T21:04:15.587Z,88.58
2022-12-16T21:07:01.996Z,88.76
2022-12-16T21:09:48.623Z,88.81
2022-12-16T21:12:34.752Z,88.66
2022-12-16T21:15:20.912Z,88.52
2022-12-16T21:18:07.373Z,88.66
2022-12-16T21:20:56.579Z,88.83
2022-12-16T21:23:43.507Z,88.88
2022-12-16T21:26:30.039Z,88.81
2022-12-16T21:29:16.077Z,88.88
2022-12-16T21:32:02.566Z,88.92
2022-12-16T21:34:49.083Z,88.52
2022-12-16T21:37:35.411Z,88.54
2022-12-16T21:40:22.057Z,88.52
2022-12-16T21:43:08.144Z,88.83
2022-12-16T21:45:56.196Z,88.80
2022-12-16T21:48:42.391Z,88.85
2022-12-16T21:51:28.763Z,88.97
2022-12-16T21:54:15.055Z,88.66
2022-12-16T21:57:01.609Z,88.79
2022-12-16T21:59:47.730Z,88.59
2022-12-16T22:02:34.239Z,88.60
2022-12-16T22:05:20.485Z,88.81
2022-12-16T22:08:06.847Z,88.93
2022-12-16T22:10:52.767Z,88.73
2022-12-16T22:13:42.738Z,88.65
2022-12-16T22:16:29.535Z,88.81
2022-12-16T22:19:16.481Z,88.66
2022-12-16T22:22:03.121Z,89.05
2022-12-16T22:24:49.429Z,88.70
2022-12-16T22:27:35.861Z,88.66
2022-12-16T22:30:23.175Z,88.86
2022-12-16T22:33:09.325Z,88.44
2022-12-16T22:35:56.039Z,88.76
2022-12-16T22:38:42.142Z,88.60
2022-12-16T22:41:28.516Z,88.38
2022-12-16T22:44:14.788Z,88.80
2022-12-16T22:47:00.946Z,88.73
2022-12-16T22:49:47.537Z,88.25
2022-12-16T22:52:34.387Z,88.62
2022-12-16T22:55:20.520Z,88.57
2022-12-16T22:58:07.123Z,88.52
2022-12-16T23:00:53.123Z,88.35
2022-12-16T23:03:43.894Z,88.34
2022-12-16T23:06:30.788Z,88.78
2022-12-16T23:09:17.285Z,88.69
2022-12-16T23:12:03.512Z,88.55
2022-12-16T23:14:49.780Z,88.81
2022-12-16T23:17:36.075Z,88.53
2022-12-16T23:20:24.023Z,88.34
2022-12-16T23:23:13.068Z,88.40
2022-12-16T23:26:04.024Z,88.29
2022-12-16T23:28:50.602Z,88.22
2022-12-16T23:31:37.267Z,88.42
2022-12-16T23:34:23.828Z,88.42
2022-12-16T23:37:10.381Z,88.39
2022-12-16T23:39:56.734Z,88.60
2022-12-16T23:42:43.529Z,88.54
2022-12-16T23:45:30.053Z,88.44
2022-12-16T23:48:24.731Z,88.38
2022-12-16T23:51:11.338Z,88.53
2022-12-16T23:53:57.507Z,88.46
2022-12-16T23:56:44.416Z,88.15
2022-12-16T23:59:30.493Z,88.19
